Decoded Metar for LFSD (DIJON in FRANCE) (IATA:DIJ) | Meteo·Mobile Aviation Weather
aviador You're here:

LFSD Decoded Metar

DIJON in FRANCE
Report Time2019-07-22 16:30:00
UTC Time2019-07-22 16:51:23
Flight Rules vfr VFR
Wind060° at 07 kt
W.Decomp.*RWY 01: 4.6 kt HW 5.3 kt RCW
RWY 35: 2.5 kt HW 6.5 kt RCW
Visibility9999 m
Phenomena:N/A
Clouds:N/A
Expected CloudBase > 9,600 ft AGL from Temp-Dew spread
CeilingNone
Temp33°C (ISA +19)
Dew Point09°C (23% RH)
Heat Index31.2°C
AAT30.3°C
QNH1021 hPa
Density Alt2,854 ft
Elevation745 ft
Report Wrong Elevation
Raw Report
METAR LFSD 221630Z AUTO 06007KT 010V120 CAVOK 33/09 Q1021=

Extra information for LFSD:More info

Metar Taf Metar & Taf Last 4 Metars F.Rules Stats Wind Profile Meteogram Temp Stats Airport Information Weather charts Add Link Nearby VenuesMetar ALERT Operation Metar Decoded Social comments